createdAt,value
2023-02-09T00:01:48.176Z,-2.58
2023-02-09T00:07:08.850Z,-2.62
2023-02-09T00:12:47.953Z,-2.56
2023-02-09T00:18:08.694Z,-2.55
2023-02-09T00:23:31.494Z,-2.45
2023-02-09T00:28:52.497Z,-2.26
2023-02-09T00:34:15.084Z,-2.09
2023-02-09T00:39:35.683Z,-2.05
2023-02-09T00:44:59.134Z,-2.03
2023-02-09T00:50:19.613Z,-2.05
2023-02-09T00:55:40.308Z,-2.17
2023-02-09T01:01:01.494Z,-2.38
2023-02-09T01:06:22.338Z,-2.40
2023-02-09T01:11:43.124Z,-2.41
2023-02-09T01:17:06.004Z,-2.13
2023-02-09T01:22:27.235Z,-1.81
2023-02-09T01:27:47.960Z,-1.57
2023-02-09T01:33:08.692Z,-1.50
2023-02-09T01:38:29.614Z,-1.66
2023-02-09T01:44:11.726Z,-1.97
2023-02-09T01:49:32.845Z,-2.04
2023-02-09T01:55:03.442Z,-1.94
2023-02-09T02:00:25.509Z,-2.24
2023-02-09T02:05:50.736Z,-2.32
2023-02-09T02:11:12.771Z,-2.23
2023-02-09T02:16:54.114Z,-2.41
2023-02-09T02:22:53.866Z,-2.42
2023-02-09T02:28:33.192Z,-2.58
2023-02-09T02:33:57.347Z,-2.79
2023-02-09T02:39:42.354Z,-2.92
2023-02-09T02:45:12.540Z,-3.04
2023-02-09T02:50:37.524Z,-2.96
2023-02-09T02:56:06.301Z,-2.80
2023-02-09T03:01:34.334Z,-2.74
2023-02-09T03:06:55.441Z,-2.89
2023-02-09T03:12:30.556Z,-2.96
2023-02-09T03:18:23.366Z,-3.01
2023-02-09T03:24:11.231Z,-3.07
2023-02-09T03:29:33.890Z,-3.12
2023-02-09T03:34:56.260Z,-3.08
2023-02-09T03:40:19.364Z,-3.18
2023-02-09T03:45:40.561Z,-3.26
2023-02-09T03:51:01.202Z,-3.26
2023-02-09T03:56:25.023Z,-3.27
2023-02-09T04:01:45.680Z,-3.27
2023-02-09T04:07:07.213Z,-3.29
2023-02-09T04:12:28.128Z,-3.30
2023-02-09T04:17:50.794Z,-3.30
2023-02-09T04:23:11.856Z,-3.31
2023-02-09T04:28:32.986Z,-3.32
2023-02-09T04:33:53.952Z,-3.39
2023-02-09T04:39:14.588Z,-3.37
2023-02-09T04:44:35.469Z,-3.44
2023-02-09T04:49:56.165Z,-3.49
2023-02-09T04:55:17.263Z,-3.48
2023-02-09T05:00:38.344Z,-3.44
2023-02-09T05:06:02.287Z,-3.32
2023-02-09T05:11:25.282Z,-3.34
2023-02-09T05:16:46.289Z,-3.38
2023-02-09T05:22:06.953Z,-3.40
2023-02-09T05:27:27.728Z,-3.45
2023-02-09T05:32:48.535Z,-3.46
2023-02-09T05:38:09.214Z,-3.46
2023-02-09T05:43:29.918Z,-3.34
2023-02-09T05:48:50.647Z,-3.32
2023-02-09T05:54:11.412Z,-3.37
2023-02-09T05:59:32.584Z,-3.32
2023-02-09T06:04:53.437Z,-3.23
2023-02-09T06:10:14.227Z,-3.18
2023-02-09T06:15:35.016Z,-3.17
2023-02-09T06:20:55.643Z,-3.20
2023-02-09T06:26:17.684Z,-3.21
2023-02-09T06:31:38.747Z,-3.19
2023-02-09T06:37:00.198Z,-3.13
2023-02-09T06:42:21.133Z,-3.06
2023-02-09T06:47:43.372Z,-2.97
2023-02-09T06:53:04.598Z,-2.96
2023-02-09T06:58:25.356Z,-2.94
2023-02-09T07:03:46.050Z,-2.66
2023-02-09T07:09:06.752Z,-2.33
2023-02-09T07:14:27.367Z,-2.13
2023-02-09T07:19:48.279Z,-2.00
2023-02-09T07:25:09.008Z,-1.96
2023-02-09T07:30:30.168Z,-1.97
2023-02-09T07:35:51.181Z,-2.01
2023-02-09T07:41:17.872Z,-1.64
2023-02-09T07:46:38.860Z,-1.25
2023-02-09T07:51:59.660Z,-1.13
2023-02-09T07:57:20.300Z,-0.96
2023-02-09T08:02:40.992Z,-1.31
2023-02-09T08:08:01.648Z,-1.44
2023-02-09T08:13:23.736Z,-1.57
2023-02-09T08:18:54.474Z,-1.56
2023-02-09T08:24:18.282Z,-0.88
2023-02-09T08:29:39.045Z,-0.35
2023-02-09T08:34:59.935Z,-0.62
2023-02-09T08:40:20.545Z,-0.77
2023-02-09T08:45:42.026Z,-1.03
2023-02-09T08:51:03.485Z,-0.93
2023-02-09T08:56:24.549Z,-0.88
2023-02-09T09:01:45.253Z,-0.92
2023-02-09T09:07:06.012Z,-0.83
2023-02-09T09:12:26.650Z,-0.76
2023-02-09T09:17:47.677Z,-0.60
2023-02-09T09:23:09.364Z,-0.49
2023-02-09T09:28:31.189Z,-0.31
2023-02-09T09:33:52.030Z,-0.23
2023-02-09T09:39:12.828Z,0.02
2023-02-09T09:44:38.158Z,0.11
2023-02-09T09:49:59.123Z,0.24
2023-02-09T09:55:24.246Z,0.29
2023-02-09T10:00:45.509Z,0.37
2023-02-09T10:06:21.065Z,0.24
2023-02-09T10:11:48.740Z,0.17
2023-02-09T10:17:09.498Z,0.38
2023-02-09T10:22:30.180Z,0.53
2023-02-09T10:27:50.829Z,0.78
2023-02-09T10:33:15.615Z,0.90
2023-02-09T10:38:40.837Z,0.97
2023-02-09T10:44:08.066Z,0.96
2023-02-09T10:49:36.531Z,1.13
2023-02-09T10:55:02.848Z,1.22
2023-02-09T11:00:31.799Z,1.31
2023-02-09T11:06:03.728Z,1.34
2023-02-09T11:11:36.676Z,1.49
2023-02-09T11:17:20.685Z,1.56
2023-02-09T11:22:57.150Z,1.67
2023-02-09T11:28:40.924Z,1.88
2023-02-09T11:34:14.592Z,2.03
2023-02-09T11:39:55.307Z,2.20
2023-02-09T11:45:30.903Z,2.16
2023-02-09T11:51:14.477Z,2.24
2023-02-09T11:56:41.876Z,2.32
2023-02-09T12:02:38.906Z,2.28
2023-02-09T12:08:07.433Z,2.38
2023-02-09T12:13:39.962Z,2.56
2023-02-09T12:19:03.343Z,2.67
2023-02-09T12:24:39.304Z,2.60
2023-02-09T12:30:01.241Z,2.77
2023-02-09T12:35:28.402Z,2.90
2023-02-09T12:41:07.407Z,3.07
2023-02-09T12:46:31.789Z,3.17
2023-02-09T12:52:00.432Z,3.26
2023-02-09T12:57:22.298Z,3.29
2023-02-09T13:02:50.316Z,3.29
2023-02-09T13:08:11.368Z,3.39
2023-02-09T13:13:32.081Z,3.43
2023-02-09T13:18:52.673Z,3.35
2023-02-09T13:24:18.942Z,3.25
2023-02-09T13:29:48.538Z,3.25
2023-02-09T13:35:22.357Z,3.33
2023-02-09T13:40:48.892Z,3.40
2023-02-09T13:46:24.312Z,3.48
2023-02-09T13:51:45.129Z,3.50
2023-02-09T13:57:30.986Z,3.79
2023-02-09T14:02:57.671Z,3.59
2023-02-09T14:08:20.112Z,3.51
2023-02-09T14:13:45.380Z,3.63
2023-02-09T14:19:27.169Z,3.69
2023-02-09T14:24:47.920Z,3.73
2023-02-09T14:30:32.127Z,3.71
2023-02-09T14:35:59.273Z,3.68
2023-02-09T14:41:28.542Z,3.68
2023-02-09T14:46:55.249Z,3.67
2023-02-09T14:52:18.677Z,3.62
2023-02-09T14:57:39.801Z,3.50
2023-02-09T15:03:00.748Z,3.48
2023-02-09T15:08:24.293Z,3.46
2023-02-09T15:13:45.246Z,3.38
2023-02-09T15:19:19.951Z,3.25
2023-02-09T15:24:48.389Z,3.18
2023-02-09T15:30:15.722Z,3.05
2023-02-09T15:35:36.961Z,2.96
2023-02-09T15:41:18.962Z,2.84
2023-02-09T15:46:58.504Z,2.77
2023-02-09T15:52:19.432Z,2.69
2023-02-09T15:57:40.164Z,2.64
2023-02-09T16:03:01.726Z,2.63
2023-02-09T16:08:25.577Z,2.77
2023-02-09T16:13:46.731Z,3.10
2023-02-09T16:19:07.762Z,3.04
2023-02-09T16:24:41.386Z,3.09
2023-02-09T16:30:03.876Z,3.14
2023-02-09T16:35:25.488Z,3.18
2023-02-09T16:40:46.439Z,3.04
2023-02-09T16:46:07.648Z,2.82
2023-02-09T16:51:28.862Z,2.62
2023-02-09T16:56:54.651Z,2.24
2023-02-09T17:02:30.617Z,2.08
2023-02-09T17:07:58.426Z,1.97
2023-02-09T17:13:22.915Z,1.99
2023-02-09T17:18:47.126Z,1.88
2023-02-09T17:24:26.300Z,1.65
2023-02-09T17:29:47.323Z,1.53
2023-02-09T17:35:38.283Z,1.48
2023-02-09T17:41:05.608Z,1.50
2023-02-09T17:46:26.596Z,1.36
2023-02-09T17:51:48.842Z,1.33
2023-02-09T17:57:14.142Z,1.38
2023-02-09T18:02:35.029Z,1.18
2023-02-09T18:07:56.689Z,0.85
2023-02-09T18:13:20.361Z,0.67
2023-02-09T18:18:41.349Z,0.59
2023-02-09T18:24:03.333Z,0.55
2023-02-09T18:29:29.322Z,0.56
2023-02-09T18:34:50.822Z,0.53
2023-02-09T18:40:12.147Z,0.62
2023-02-09T18:45:34.402Z,0.63
2023-02-09T18:50:55.355Z,0.64
2023-02-09T18:56:21.020Z,0.43
2023-02-09T19:01:42.343Z,0.25
2023-02-09T19:07:03.566Z,0.15
2023-02-09T19:12:27.007Z,0.10
2023-02-09T19:17:49.315Z,0.12
2023-02-09T19:23:10.648Z,0.14
2023-02-09T19:28:35.306Z,0.10
2023-02-09T19:33:57.274Z,0.18
2023-02-09T19:39:19.783Z,0.24
2023-02-09T19:44:40.473Z,0.40
2023-02-09T19:50:01.150Z,0.53
2023-02-09T19:55:21.994Z,0.75
2023-02-09T20:00:44.006Z,0.85
2023-02-09T20:06:11.724Z,1.00
2023-02-09T20:11:33.570Z,0.92
2023-02-09T20:16:54.736Z,0.78
2023-02-09T20:22:16.956Z,0.72
2023-02-09T20:27:37.816Z,0.67
2023-02-09T20:32:58.584Z,0.58
2023-02-09T20:38:20.914Z,0.33
2023-02-09T20:44:02.683Z,0.44
2023-02-09T20:49:34.381Z,0.62
2023-02-09T20:54:55.818Z,0.63
2023-02-09T21:00:17.392Z,0.50
2023-02-09T21:05:40.868Z,0.55
2023-02-09T21:11:01.576Z,0.55
2023-02-09T21:16:25.362Z,0.42
2023-02-09T21:21:46.082Z,0.22
2023-02-09T21:27:07.192Z,0.06
2023-02-09T21:32:27.769Z,-0.16
2023-02-09T21:37:48.966Z,-0.12
2023-02-09T21:43:10.234Z,-0.12
2023-02-09T21:48:31.266Z,-0.21
2023-02-09T21:53:52.577Z,-0.24
2023-02-09T21:59:13.360Z,-0.34
2023-02-09T22:04:34.199Z,-0.38
2023-02-09T22:09:54.858Z,-0.41
2023-02-09T22:15:18.042Z,-0.52
2023-02-09T22:20:43.849Z,-0.49
2023-02-09T22:26:06.001Z,-0.48
2023-02-09T22:31:27.004Z,-0.48
2023-02-09T22:36:51.411Z,-0.47
2023-02-09T22:42:12.256Z,-0.60
2023-02-09T22:47:33.770Z,-0.73
2023-02-09T22:52:54.590Z,-0.72
2023-02-09T22:58:15.296Z,-0.69
2023-02-09T23:03:36.763Z,-0.70
2023-02-09T23:09:00.876Z,-0.68
2023-02-09T23:14:21.873Z,-0.82
2023-02-09T23:19:42.591Z,-0.90
2023-02-09T23:25:03.241Z,-1.08
2023-02-09T23:30:24.028Z,-0.96
2023-02-09T23:35:45.042Z,-0.73
2023-02-09T23:41:12.474Z,-0.66
2023-02-09T23:46:33.429Z,-0.65
2023-02-09T23:51:54.146Z,-0.84
2023-02-09T23:57:14.834Z,-0.76
